Time;durP1;ratioP1;P1;durP2;ratioP2;P2;SDS_P1;SDS_P2;PMS_P1;PMS_P2;Temp;Humidity;BMP_temperature;BMP_pressure;BME280_temperature;BME280_humidity;BME280_pressure;Samples;Min_cycle;Max_cycle;Signal;HPM_P1;HPM_P2
2022/08/10 00:02:23;;;;;;;1.37;0.82;;;28.60;55.70;;;;;;10905409;32;20020;-70
2022/08/10 00:08:25;;;;;;;1.95;1.10;;;28.60;56.00;;;;;;10905592;32;20309;-71
2022/08/10 00:14:28;;;;;;;1.35;1.15;;;28.50;56.70;;;;;;10905607;32;20019;-71
2022/08/10 00:20:30;;;;;;;1.67;1.05;;;28.40;57.00;;;;;;10906569;32;20035;-71
2022/08/10 00:26:33;;;;;;;1.58;0.90;;;28.40;57.30;;;;;;10905006;32;20050;-71
2022/08/10 00:32:35;;;;;;;3.92;1.45;;;28.50;57.20;;;;;;10905098;32;20035;-71
2022/08/10 00:38:37;;;;;;;6.15;0.93;;;28.40;57.00;;;;;;10904991;32;20355;-71
2022/08/10 00:44:42;;;;;;;3.12;1.42;;;28.30;56.90;;;;;;10904566;32;20074;-70
2022/08/10 00:50:44;;;;;;;3.22;1.17;;;28.30;56.60;;;;;;10904508;32;20030;-71
2022/08/10 00:56:47;;;;;;;3.65;1.08;;;28.20;56.60;;;;;;10904449;32;20019;-71
2022/08/10 01:02:49;;;;;;;1.65;0.82;;;28.30;56.70;;;;;;10904309;32;20050;-71
2022/08/10 01:09:08;;;;;;;4.03;1.10;;;28.30;56.50;;;;;;10904147;32;20389;-71
2022/08/10 01:15:59;;;;;;;1.40;0.70;;;28.30;56.90;;;;;;10904144;32;20396;-71
2022/08/10 01:22:30;;;;;;;2.12;0.75;;;28.30;56.80;;;;;;10720680;33;20024;-71
2022/08/10 01:28:37;;;;;;;2.17;1.10;;;28.30;56.50;;;;;;10354295;33;12045701;-71
2022/08/10 01:35:06;;;;;;;4.37;1.12;;;28.30;56.40;;;;;;10652068;33;20068;-71
2022/08/10 01:41:23;;;;;;;1.62;0.95;;;28.30;56.00;;;;;;10545505;33;20035;-71
2022/08/10 01:54:10;;;;;;;1.48;1.00;;;28.10;56.00;;;;;;10545406;33;20434;-71
2022/08/10 02:00:13;;;;;;;2.28;1.17;;;28.00;56.20;;;;;;10651525;33;20048;-71
2022/08/10 02:06:16;;;;;;;2.97;1.12;;;28.00;56.30;;;;;;10682719;33;20037;-71
2022/08/10 02:12:27;;;;;;;2.83;0.82;;;27.90;56.20;;;;;;10686459;33;20311;-71
2022/08/10 02:18:31;;;;;;;2.17;1.25;;;27.80;56.50;;;;;;10878226;32;20066;-71
2022/08/10 02:24:34;;;;;;;1.42;1.10;;;27.70;56.70;;;;;;10909524;32;20015;-71
2022/08/10 02:30:36;;;;;;;2.00;1.17;;;27.70;56.40;;;;;;10908605;32;20020;-71
2022/08/10 02:36:50;;;;;;;2.25;1.17;;;27.60;56.20;;;;;;10908936;32;20347;-71
2022/08/10 02:43:04;;;;;;;1.42;0.98;;;27.60;56.20;;;;;;10908777;32;20020;-71
2022/08/10 02:49:53;;;;;;;3.37;1.35;;;27.40;56.50;;;;;;10904366;32;20418;-71
2022/08/10 02:56:08;;;;;;;;;;;27.30;56.60;;;;;;10907326;32;20036;-71
2022/08/10 03:02:18;;;;;;;2.15;1.23;;;27.30;56.60;;;;;;10906800;32;20231;-71
2022/08/10 03:08:26;;;;;;;5.25;1.23;;;27.30;56.60;;;;;;10907823;32;20098;-72
2022/08/10 03:14:29;;;;;;;9.75;1.12;;;27.10;56.80;;;;;;10903528;32;20039;-71
2022/08/10 03:20:35;;;;;;;3.12;0.85;;;27.00;57.10;;;;;;10907403;32;20031;-71
2022/08/10 03:26:38;;;;;;;1.67;0.90;;;27.00;57.10;;;;;;10907245;32;20339;-71
2022/08/10 03:32:42;;;;;;;1.12;0.90;;;27.00;57.20;;;;;;10907084;32;20063;-72
2022/08/10 03:38:47;;;;;;;1.90;0.95;;;26.90;57.20;;;;;;10906789;32;20027;-71
2022/08/10 03:44:51;;;;;;;1.27;1.00;;;26.90;57.10;;;;;;10906302;32;20055;-72
2022/08/10 03:50:58;;;;;;;3.50;1.55;;;26.90;56.70;;;;;;10906473;32;20019;-71
2022/08/10 03:57:01;;;;;;;1.83;0.80;;;26.90;56.50;;;;;;10901928;32;20023;-71
2022/08/10 04:03:05;;;;;;;1.25;0.75;;;26.80;56.80;;;;;;10905927;32;20019;-71
2022/08/10 04:09:08;;;;;;;1.30;1.02;;;26.80;56.70;;;;;;10905819;32;20525;-71
2022/08/10 04:15:10;;;;;;;1.83;0.70;;;26.70;56.80;;;;;;10905513;32;20082;-71
2022/08/10 04:21:17;;;;;;;2.37;1.30;;;26.60;57.10;;;;;;10901093;32;20019;-72
2022/08/10 04:27:20;;;;;;;1.58;0.75;;;26.60;57.20;;;;;;10905206;32;20078;-72
2022/08/10 04:33:40;;;;;;;1.73;1.10;;;26.50;57.30;;;;;;10870985;27;20035;-71
2022/08/10 04:39:42;;;;;;;1.23;0.90;;;26.50;57.10;;;;;;10867544;32;20058;-71
2022/08/10 04:45:45;;;;;;;1.15;0.80;;;26.50;57.00;;;;;;10863271;32;20027;-71
2022/08/10 04:51:47;;;;;;;10.07;1.27;;;26.50;57.10;;;;;;10867143;32;20036;-71
2022/08/10 04:57:49;;;;;;;4.22;1.15;;;26.40;57.20;;;;;;10866219;32;20031;-71
2022/08/10 05:03:50;;;;;;;1.58;0.85;;;26.40;57.30;;;;;;10867095;32;20040;-71
2022/08/10 05:09:53;;;;;;;1.35;0.90;;;26.50;57.10;;;;;;10867051;32;20273;-72
2022/08/10 05:15:55;;;;;;;1.27;0.82;;;26.70;56.80;;;;;;10866828;32;20506;-71
2022/08/10 05:21:57;;;;;;;1.95;1.02;;;26.70;56.80;;;;;;10853380;32;20019;-71
2022/08/10 05:27:59;;;;;;;2.08;1.15;;;26.70;56.80;;;;;;10866452;32;20102;-71
2022/08/10 05:34:02;;;;;;;1.98;0.80;;;26.80;56.80;;;;;;10866492;32;20017;-70
2022/08/10 05:40:05;;;;;;;2.80;1.23;;;26.90;56.50;;;;;;10866237;32;20024;-71
2022/08/10 05:46:07;;;;;;;1.70;0.98;;;27.10;56.30;;;;;;10864891;32;20027;-70
2022/08/10 05:52:09;;;;;;;4.40;1.30;;;27.30;56.00;;;;;;10866282;32;20063;-70
2022/08/10 05:58:12;;;;;;;2.70;1.40;;;27.30;55.40;;;;;;10851886;32;20054;-70
2022/08/10 06:04:39;;;;;;;1.80;1.20;;;27.40;55.30;;;;;;10863900;32;20031;-71
2022/08/10 06:10:43;;;;;;;2.80;1.47;;;27.40;55.00;;;;;;10862149;32;20027;-71
2022/08/10 06:16:46;;;;;;;1.87;0.98;;;27.40;55.30;;;;;;10868438;32;20411;-70
2022/08/10 06:22:48;;;;;;;1.48;1.00;;;27.60;55.10;;;;;;10871891;32;20352;-71
2022/08/10 06:28:55;;;;;;;1.50;1.02;;;27.70;54.80;;;;;;10867889;32;20062;-71
2022/08/10 06:34:59;;;;;;;1.98;0.90;;;27.70;54.30;;;;;;10872007;32;20020;-71
2022/08/10 06:41:07;;;;;;;8.43;1.08;;;27.60;54.30;;;;;;10870569;32;20016;-71
2022/08/10 06:47:12;;;;;;;0.68;0.68;;;27.70;54.30;;;;;;10871398;32;20400;-70
2022/08/10 06:53:17;;;;;;;1.80;0.95;;;27.70;54.40;;;;;;10871192;32;20347;-71
2022/08/10 06:59:30;;;;;;;2.15;1.08;;;27.80;54.30;;;;;;10870679;32;20046;-71
2022/08/10 07:05:37;;;;;;;4.32;1.08;;;27.80;54.20;;;;;;10870748;32;20344;-70
2022/08/10 07:11:42;;;;;;;0.82;0.65;;;28.00;53.80;;;;;;10870552;32;20027;-70
2022/08/10 07:17:45;;;;;;;2.83;1.27;;;28.10;53.20;;;;;;10867748;32;20058;-70
2022/08/10 07:23:48;;;;;;;2.00;1.08;;;28.20;52.90;;;;;;10870005;32;20027;-70
2022/08/10 07:29:52;;;;;;;1.37;0.98;;;28.40;52.50;;;;;;10869440;32;20047;-70
2022/08/10 07:35:56;;;;;;;1.85;0.82;;;28.50;51.30;;;;;;10869660;32;20016;-70
2022/08/10 07:42:00;;;;;;;1.00;0.80;;;28.60;51.20;;;;;;10868438;32;20032;-70
2022/08/10 07:48:27;;;;;;;1.98;1.12;;;28.80;51.20;;;;;;10864547;32;20438;-71
2022/08/10 07:54:55;;;;;;;0.93;0.60;;;28.80;50.40;;;;;;10866390;32;20042;-70
2022/08/10 08:00:59;;;;;;;6.57;1.00;;;28.90;50.00;;;;;;10865056;32;20027;-71
2022/08/10 08:07:03;;;;;;;2.33;0.90;;;28.90;50.30;;;;;;10863922;32;20391;-71
2022/08/10 08:13:06;;;;;;;1.00;0.80;;;28.90;50.00;;;;;;10863665;32;20046;-71
2022/08/10 08:19:25;;;;;;;1.95;1.05;;;29.00;50.10;;;;;;10865122;32;20042;-69
2022/08/10 08:25:28;;;;;;;0.70;0.52;;;29.20;50.20;;;;;;10867555;32;20023;-70
2022/08/10 08:31:31;;;;;;;1.80;1.00;;;29.30;50.50;;;;;;10867138;32;20020;-71
2022/08/10 08:37:39;;;;;;;2.90;1.12;;;29.40;49.30;;;;;;10863504;32;20352;-72
2022/08/10 08:44:31;;;;;;;1.17;0.80;;;29.40;49.10;;;;;;10864875;32;20371;-71
2022/08/10 08:50:49;;;;;;;2.33;1.45;;;29.50;48.90;;;;;;10867306;32;20065;-71
2022/08/10 08:58:00;;;;;;;0.55;0.55;;;29.60;48.50;;;;;;10863170;32;20081;-71
2022/08/10 09:04:56;;;;;;;1.83;1.02;;;29.70;48.20;;;;;;10717384;33;20079;-71
2022/08/10 09:11:22;;;;;;;0.90;0.57;;;29.80;47.50;;;;;;10680570;33;20029;-69
2022/08/10 09:17:46;;;;;;;3.92;1.23;;;30.00;47.10;;;;;;10679426;33;20029;-71
2022/08/10 09:24:12;;;;;;;1.52;1.05;;;30.10;46.90;;;;;;10679746;33;20544;-72
2022/08/10 09:30:59;;;;;;;5.43;1.52;;;30.10;46.30;;;;;;10678904;33;20029;-71
2022/08/10 09:37:28;;;;;;;3.30;1.20;;;30.20;46.50;;;;;;10674291;33;20060;-71
2022/08/10 09:44:12;;;;;;;1.65;1.20;;;30.30;46.00;;;;;;10749343;33;20067;-71
2022/08/10 09:50:56;;;;;;;1.10;0.93;;;30.40;44.90;;;;;;10795618;33;20036;-70
2022/08/10 09:57:13;;;;;;;2.45;0.88;;;30.60;44.90;;;;;;10690082;33;20071;-71
2022/08/10 10:03:38;;;;;;;0.55;0.55;;;30.80;44.60;;;;;;10722237;33;20078;-71
2022/08/10 10:10:01;;;;;;;0.50;0.50;;;31.10;43.10;;;;;;10733517;33;20036;-69
2022/08/10 10:16:41;;;;;;;1.70;0.75;;;31.10;42.50;;;;;;10794551;33;20028;-71
2022/08/10 10:23:00;;;;;;;1.27;0.85;;;31.20;42.90;;;;;;10757625;33;20051;-71
2022/08/10 10:29:35;;;;;;;0.95;0.70;;;31.30;42.40;;;;;;10818375;32;20052;-71
2022/08/10 10:35:47;;;;;;;1.25;1.10;;;31.50;42.40;;;;;;10830663;32;20384;-71
2022/08/10 10:42:14;;;;;;;0.85;0.60;;;31.70;41.80;;;;;;10829901;32;20055;-72
2022/08/10 10:48:38;;;;;;;1.70;0.90;;;31.80;41.40;;;;;;10830323;32;20062;-71
2022/08/10 10:55:08;;;;;;;1.75;1.08;;;32.00;40.80;;;;;;10870402;32;20344;-71
2022/08/10 11:01:46;;;;;;;2.60;0.82;;;32.20;41.20;;;;;;10871159;32;20023;-72
2022/08/10 11:08:07;;;;;;;2.05;1.08;;;32.40;40.50;;;;;;10870893;32;20054;-71
2022/08/10 11:14:44;;;;;;;0.88;0.65;;;32.60;40.80;;;;;;10867913;32;20054;-72
2022/08/10 11:21:12;;;;;;;3.97;0.85;;;32.80;40.90;;;;;;10867871;32;20332;-72
2022/08/10 11:27:25;;;;;;;1.30;0.82;;;32.90;39.80;;;;;;10870068;32;20058;-71
2022/08/10 11:34:01;;;;;;;2.65;1.48;;;33.30;39.40;;;;;;10869904;32;20348;-71
2022/08/10 11:40:46;;;;;;;3.35;1.40;;;33.50;39.00;;;;;;10869593;32;20027;-71
2022/08/10 11:54:20;;;;;;;2.55;1.23;;;33.70;37.30;;;;;;10755348;33;20047;-71
2022/08/10 12:00:24;;;;;;;2.67;1.25;;;34.00;36.90;;;;;;10755031;33;20421;-72
2022/08/10 12:06:27;;;;;;;0.50;0.43;;;34.10;37.20;;;;;;10754315;33;20075;-71
2022/08/10 12:12:38;;;;;;;0.65;0.60;;;34.30;36.70;;;;;;10750203;33;20021;-72
2022/08/10 12:18:45;;;;;;;3.50;1.12;;;34.40;36.20;;;;;;10777964;32;20031;-72
2022/08/10 12:25:00;;;;;;;1.40;1.00;;;34.40;35.40;;;;;;10863975;32;20058;-72
2022/08/10 12:31:07;;;;;;;2.25;1.15;;;34.30;37.20;;;;;;10870765;27;20077;-70
2022/08/10 12:37:48;;;;;;;0.95;0.60;;;34.30;35.90;;;;;;10850394;32;20050;-72
2022/08/10 12:44:23;;;;;;;2.15;0.95;;;34.30;35.00;;;;;;10851580;32;20054;-72
2022/08/10 12:50:39;;;;;;;0.95;0.50;;;34.30;34.70;;;;;;10867389;32;20023;-72
2022/08/10 12:56:50;;;;;;;1.17;0.62;;;34.30;34.10;;;;;;10867361;32;20073;-71
2022/08/10 13:02:52;;;;;;;0.52;0.47;;;34.30;33.40;;;;;;10862420;32;20412;-71
2022/08/10 13:09:07;;;;;;;0.93;0.52;;;34.30;33.20;;;;;;10866850;32;20031;-71
2022/08/10 13:15:21;;;;;;;2.70;0.68;;;34.30;33.10;;;;;;10863129;32;20031;-71
2022/08/10 13:21:31;;;;;;;1.37;0.85;;;34.30;34.30;;;;;;10872950;32;20050;-73
2022/08/10 13:27:38;;;;;;;0.70;0.70;;;34.20;33.80;;;;;;10873449;32;20039;-71
2022/08/10 13:33:50;;;;;;;0.95;0.70;;;34.20;33.20;;;;;;10870558;32;20051;-72
2022/08/10 13:39:57;;;;;;;1.55;0.77;;;34.30;32.90;;;;;;10873826;32;20324;-72
2022/08/10 13:46:00;;;;;;;3.20;0.90;;;34.20;32.50;;;;;;10869979;32;20032;-72
2022/08/10 13:52:09;;;;;;;1.48;1.00;;;34.20;32.60;;;;;;10872361;32;20073;-72
2022/08/10 13:58:13;;;;;;;2.03;0.68;;;34.30;32.20;;;;;;10870921;32;20336;-71
2022/08/10 14:04:24;;;;;;;0.98;0.77;;;34.20;32.00;;;;;;10873033;32;20036;-71
2022/08/10 14:10:33;;;;;;;1.20;0.85;;;34.20;33.60;;;;;;10872626;32;20015;-71
2022/08/10 14:16:40;;;;;;;1.17;0.55;;;34.20;32.90;;;;;;10872355;32;20046;-71
2022/08/10 14:22:44;;;;;;;0.70;0.50;;;34.20;33.20;;;;;;10868088;32;20032;-72
2022/08/10 14:29:26;;;;;;;2.33;1.15;;;34.10;33.30;;;;;;10871869;32;20058;-72
2022/08/10 14:35:32;;;;;;;11.60;1.65;;;34.30;33.20;;;;;;10870265;32;20024;-72
2022/08/10 14:41:38;;;;;;;5.00;0.83;;;34.10;34.60;;;;;;10871499;32;20024;-72
2022/08/10 14:47:41;;;;;;;1.45;0.90;;;34.10;34.30;;;;;;10871202;32;20023;-72
2022/08/10 14:53:49;;;;;;;1.00;0.77;;;34.10;34.40;;;;;;10870892;32;20023;-72
2022/08/10 14:59:56;;;;;;;2.90;0.62;;;34.20;34.10;;;;;;10866631;32;20059;-72
2022/08/10 15:06:01;;;;;;;1.77;0.70;;;34.10;33.90;;;;;;10870635;32;20019;-72
2022/08/10 15:12:04;;;;;;;0.80;0.73;;;34.10;34.20;;;;;;10865564;32;20051;-72
2022/08/10 15:18:09;;;;;;;1.62;0.88;;;34.00;34.10;;;;;;10866343;32;20058;-72
2022/08/10 15:24:58;;;;;;;2.00;0.98;;;34.10;33.40;;;;;;10870055;32;20070;-72
2022/08/10 15:30:47;;;;;;;2.05;1.00;;;34.20;33.50;;;;;;10869657;32;20020;-72
2022/08/10 15:37:12;;;;;;;1.00;0.52;;;34.20;33.50;;;;;;10869341;32;20024;-71
2022/08/10 15:43:22;;;;;;;3.15;0.82;;;34.20;33.50;;;;;;10868780;32;20015;-72
2022/08/10 15:49:42;;;;;;;1.75;0.60;;;34.40;33.40;;;;;;10868751;32;20336;-71
2022/08/10 15:55:51;;;;;;;1.62;0.47;;;34.50;32.80;;;;;;10865454;32;20047;-71
2022/08/10 16:02:04;;;;;;;1.27;0.57;;;34.50;32.70;;;;;;10867992;32;20015;-71
2022/08/10 16:08:26;;;;;;;2.85;0.70;;;34.50;32.20;;;;;;10868196;32;20023;-71
2022/08/10 16:14:34;;;;;;;0.50;0.50;;;34.50;32.80;;;;;;10868182;32;20038;-71
2022/08/10 16:20:47;;;;;;;1.35;0.75;;;34.50;32.40;;;;;;10866215;32;20396;-71
2022/08/10 16:26:52;;;;;;;7.12;0.88;;;34.50;32.20;;;;;;10867572;32;20054;-72
2022/08/10 16:32:58;;;;;;;1.15;0.50;;;34.60;32.10;;;;;;10865262;32;20045;-72
2022/08/10 16:39:02;;;;;;;5.65;0.73;;;34.70;32.00;;;;;;10866448;32;20339;-72
2022/08/10 16:45:04;;;;;;;1.80;0.75;;;34.70;31.80;;;;;;10866855;32;20034;-72
2022/08/10 16:51:09;;;;;;;0.82;0.70;;;34.60;31.90;;;;;;10866472;32;20015;-71
2022/08/10 16:57:14;;;;;;;1.42;1.00;;;34.60;31.80;;;;;;10866797;32;20043;-71
2022/08/10 17:03:17;;;;;;;0.55;0.50;;;34.60;31.90;;;;;;10862362;32;20050;-71
2022/08/10 17:09:47;;;;;;;6.82;0.55;;;34.60;31.90;;;;;;10866449;32;20024;-71
2022/08/10 17:15:57;;;;;;;1.90;1.67;;;34.70;32.00;;;;;;10863638;32;20058;-71
2022/08/10 17:22:25;;;;;;;2.45;1.23;;;34.70;31.90;;;;;;10866688;32;20042;-71
2022/08/10 17:28:29;;;;;;;1.10;0.80;;;34.80;31.50;;;;;;10865858;32;20054;-72
2022/08/10 17:34:45;;;;;;;1.80;0.70;;;35.80;30.90;;;;;;10862712;32;20078;-72
2022/08/10 17:40:50;;;;;;;1.23;0.83;;;35.80;31.60;;;;;;10865550;32;20047;-72
2022/08/10 17:46:53;;;;;;;1.90;1.25;;;34.80;33.30;;;;;;10866125;32;20124;-72
2022/08/10 17:53:23;;;;;;;3.60;1.48;;;34.10;34.40;;;;;;10866178;32;20011;-71
2022/08/10 17:59:27;;;;;;;5.40;1.25;;;33.80;35.20;;;;;;10866040;32;20070;-72
2022/08/10 18:05:32;;;;;;;6.20;1.67;;;34.20;35.10;;;;;;10871110;32;20031;-72
2022/08/10 18:11:41;;;;;;;3.28;1.62;;;33.60;36.70;;;;;;10872729;32;20028;-72
2022/08/10 18:18:10;;;;;;;3.17;1.35;;;33.10;38.00;;;;;;10872511;32;20042;-72
2022/08/10 18:24:19;;;;;;;3.90;0.95;;;32.80;38.80;;;;;;10871432;32;20346;-72
2022/08/10 18:30:22;;;;;;;1.98;1.30;;;32.50;39.00;;;;;;10872103;32;20491;-72
2022/08/10 18:36:26;;;;;;;5.37;1.20;;;32.40;39.10;;;;;;10872043;32;20028;-72
2022/08/10 18:43:10;;;;;;;2.95;1.58;;;32.30;39.30;;;;;;10872235;32;20011;-72
2022/08/10 18:49:38;;;;;;;1.55;0.95;;;32.20;39.60;;;;;;10871262;32;20023;-71
2022/08/10 18:55:41;;;;;;;1.50;1.10;;;32.10;39.80;;;;;;10871074;32;20054;-71
2022/08/10 19:02:31;;;;;;;1.40;0.70;;;31.90;40.00;;;;;;10870966;32;20045;-72
2022/08/10 19:08:36;;;;;;;1.92;1.10;;;31.80;40.20;;;;;;10827191;32;20033;-71
2022/08/10 19:15:16;;;;;;;1.10;0.90;;;31.80;40.50;;;;;;10791692;33;20016;-72
2022/08/10 19:21:27;;;;;;;1.67;0.93;;;31.60;40.80;;;;;;10792164;33;20401;-72
2022/08/10 19:27:47;;;;;;;2.78;0.93;;;31.50;41.20;;;;;;10792043;33;20054;-72
2022/08/10 19:34:02;;;;;;;2.00;1.20;;;31.30;41.50;;;;;;10791886;33;20341;-72
2022/08/10 19:40:20;;;;;;;1.40;0.57;;;31.30;41.80;;;;;;10792763;33;20046;-72
2022/08/10 19:46:37;;;;;;;2.28;0.98;;;31.10;42.00;;;;;;10866393;32;20058;-72
2022/08/10 19:53:02;;;;;;;3.33;1.65;;;31.10;42.50;;;;;;10869193;32;20038;-71
2022/08/10 19:59:09;;;;;;;2.40;1.30;;;31.00;42.80;;;;;;10719060;33;20028;-71
2022/08/10 20:05:30;;;;;;;;;;;30.90;43.50;;;;;;10714609;33;20484;-71
2022/08/10 20:11:52;;;;;;;1.50;1.00;;;30.80;44.60;;;;;;10717736;33;20265;-71
2022/08/10 20:18:27;;;;;;;2.62;1.27;;;30.70;45.50;;;;;;10717428;33;20056;-71
2022/08/10 20:25:00;;;;;;;2.92;1.33;;;30.50;46.30;;;;;;10717069;33;20047;-71
2022/08/10 20:31:09;;;;;;;3.55;1.02;;;30.40;46.90;;;;;;10720576;27;20080;-71
2022/08/10 20:37:29;;;;;;;1.27;0.90;;;30.30;47.40;;;;;;10789180;33;20032;-71
2022/08/10 20:43:53;;;;;;;2.37;1.23;;;30.30;47.70;;;;;;10794429;33;20051;-70
2022/08/10 20:50:30;;;;;;;1.55;1.17;;;30.20;48.20;;;;;;10789432;33;20047;-71
2022/08/10 20:56:48;;;;;;;1.23;0.77;;;30.10;48.90;;;;;;10793374;33;20066;-70
2022/08/10 21:02:56;;;;;;;1.75;1.10;;;29.90;49.60;;;;;;10793259;33;20059;-71
2022/08/10 21:09:11;;;;;;;2.25;0.93;;;29.80;49.90;;;;;;10793091;33;20028;-71
2022/08/10 21:15:39;;;;;;;9.10;1.90;;;29.90;49.70;;;;;;10793094;33;20082;-71
2022/08/10 21:22:10;;;;;;;3.08;1.15;;;30.00;49.60;;;;;;10792879;33;20386;-71
2022/08/10 22:53:07;;;;;;;1.73;1.08;;;29.60;52.20;;;;;;10796668;33;20028;-71
2022/08/10 22:59:28;;;;;;;1.12;1.02;;;29.50;52.50;;;;;;10797234;33;20029;-71
2022/08/10 23:05:37;;;;;;;2.75;1.20;;;29.60;52.40;;;;;;10796869;33;20024;-71
2022/08/10 23:11:41;;;;;;;1.95;1.12;;;29.60;52.30;;;;;;10796683;33;20028;-71
2022/08/10 23:24:31;;;;;;;4.18;1.60;;;29.40;52.80;;;;;;10796238;33;20028;-71
2022/08/10 23:30:38;;;;;;;2.10;1.42;;;29.40;52.80;;;;;;10795976;33;20068;-71
2022/08/10 23:36:41;;;;;;;1.67;1.00;;;29.40;52.60;;;;;;10795984;33;20051;-71
2022/08/10 23:42:49;;;;;;;2.62;1.48;;;29.30;53.00;;;;;;10795761;33;20102;-70
2022/08/10 23:48:53;;;;;;;1.12;0.90;;;29.30;53.30;;;;;;10795410;33;20055;-71
2022/08/10 23:55:02;;;;;;;3.03;2.03;;;29.30;53.40;;;;;;10795177;33;20037;-70
